sensor_id;sensor_type;location;lat;lon;timestamp;temperature;humidity
19680;DHT22;9989;48.962;9.182;2024-01-15T00:02:05;0.10;99.90
19680;DHT22;9989;48.962;9.182;2024-01-15T00:04:36;0.10;99.90
19680;DHT22;9989;48.962;9.182;2024-01-15T00:07:01;0.00;99.90
19680;DHT22;9989;48.962;9.182;2024-01-15T00:09:27;-0.10;99.90
19680;DHT22;9989;48.962;9.182;2024-01-15T00:11:53;-0.10;99.90
19680;DHT22;9989;48.962;9.182;2024-01-15T00:14:18;-0.10;99.90
19680;DHT22;9989;48.962;9.182;2024-01-15T00:16:45;-0.20;99.90
19680;DHT22;9989;48.962;9.182;2024-01-15T00:19:11;-0.20;99.90
19680;DHT22;9989;48.962;9.182;2024-01-15T00:21:37;-0.30;99.90
19680;DHT22;9989;48.962;9.182;2024-01-15T00:24:02;-0.30;99.90
19680;DHT22;9989;48.962;9.182;2024-01-15T00:26:28;-0.30;99.90
19680;DHT22;9989;48.962;9.182;2024-01-15T00:28:54;-0.30;99.90
19680;DHT22;9989;48.962;9.182;2024-01-15T00:31:19;-0.40;99.90
19680;DHT22;9989;48.962;9.182;2024-01-15T00:33:45;-0.40;99.90
19680;DHT22;9989;48.962;9.182;2024-01-15T00:36:11;-0.40;99.90
19680;DHT22;9989;48.962;9.182;2024-01-15T00:38:36;-0.40;99.90
19680;DHT22;9989;48.962;9.182;2024-01-15T00:41:02;-0.30;99.90
19680;DHT22;9989;48.962;9.182;2024-01-15T00:43:28;-0.30;99.90
19680;DHT22;9989;48.962;9.182;2024-01-15T00:45:54;-0.30;99.90
19680;DHT22;9989;48.962;9.182;2024-01-15T00:48:19;-0.30;99.90
19680;DHT22;9989;48.962;9.182;2024-01-15T00:50:45;-0.20;99.90
19680;DHT22;9989;48.962;9.182;2024-01-15T00:53:11;-0.20;99.90
19680;DHT22;9989;48.962;9.182;2024-01-15T00:55:36;-0.10;99.90
19680;DHT22;9989;48.962;9.182;2024-01-15T00:58:03;-0.10;99.90
19680;DHT22;9989;48.962;9.182;2024-01-15T01:00:29;-0.10;99.90
19680;DHT22;9989;48.962;9.182;2024-01-15T01:02:54;0.00;99.90
19680;DHT22;9989;48.962;9.182;2024-01-15T01:05:20;0.00;99.90
19680;DHT22;9989;48.962;9.182;2024-01-15T01:07:46;0.10;99.90
19680;DHT22;9989;48.962;9.182;2024-01-15T01:10:11;0.10;99.90
19680;DHT22;9989;48.962;9.182;2024-01-15T01:12:37;0.10;99.90
19680;DHT22;9989;48.962;9.182;2024-01-15T01:15:03;0.10;99.90
19680;DHT22;9989;48.962;9.182;2024-01-15T01:17:28;0.20;99.90
19680;DHT22;9989;48.962;9.182;2024-01-15T01:19:56;0.20;99.90
19680;DHT22;9989;48.962;9.182;2024-01-15T01:22:21;0.20;99.90
19680;DHT22;9989;48.962;9.182;2024-01-15T01:24:47;0.30;99.90
19680;DHT22;9989;48.962;9.182;2024-01-15T01:27:12;0.30;99.90
19680;DHT22;9989;48.962;9.182;2024-01-15T01:29:38;0.30;99.90
19680;DHT22;9989;48.962;9.182;2024-01-15T01:32:04;0.30;99.90
19680;DHT22;9989;48.962;9.182;2024-01-15T01:34:32;0.30;99.90
19680;DHT22;9989;48.962;9.182;2024-01-15T01:36:58;0.40;99.90
19680;DHT22;9989;48.962;9.182;2024-01-15T01:39:24;0.40;99.90
19680;DHT22;9989;48.962;9.182;2024-01-15T01:41:49;0.40;99.90
19680;DHT22;9989;48.962;9.182;2024-01-15T01:44:15;0.40;99.90
19680;DHT22;9989;48.962;9.182;2024-01-15T01:46:41;0.50;99.90
19680;DHT22;9989;48.962;9.182;2024-01-15T01:49:07;0.50;99.90
19680;DHT22;9989;48.962;9.182;2024-01-15T01:51:35;0.50;99.90
19680;DHT22;9989;48.962;9.182;2024-01-15T01:54:03;0.50;99.90
19680;DHT22;9989;48.962;9.182;2024-01-15T01:56:29;0.50;99.90
19680;DHT22;9989;48.962;9.182;2024-01-15T01:58:55;0.60;99.90
19680;DHT22;9989;48.962;9.182;2024-01-15T02:01:22;0.50;99.90
19680;DHT22;9989;48.962;9.182;2024-01-15T02:03:47;0.60;99.90
19680;DHT22;9989;48.962;9.182;2024-01-15T02:06:13;0.60;99.90
19680;DHT22;9989;48.962;9.182;2024-01-15T02:08:39;0.60;99.90
19680;DHT22;9989;48.962;9.182;2024-01-15T02:11:08;0.60;99.90
19680;DHT22;9989;48.962;9.182;2024-01-15T02:13:33;0.60;99.90
19680;DHT22;9989;48.962;9.182;2024-01-15T02:15:59;0.60;99.90
19680;DHT22;9989;48.962;9.182;2024-01-15T02:18:24;0.60;99.90
19680;DHT22;9989;48.962;9.182;2024-01-15T02:20:50;0.60;99.90
19680;DHT22;9989;48.962;9.182;2024-01-15T02:23:16;0.70;99.90
19680;DHT22;9989;48.962;9.182;2024-01-15T02:25:43;0.70;99.90
19680;DHT22;9989;48.962;9.182;2024-01-15T02:28:11;0.70;99.90
19680;DHT22;9989;48.962;9.182;2024-01-15T02:30:40;0.80;99.90
19680;DHT22;9989;48.962;9.182;2024-01-15T02:33:07;0.80;99.90
19680;DHT22;9989;48.962;9.182;2024-01-15T02:35:33;0.80;99.90
19680;DHT22;9989;48.962;9.182;2024-01-15T02:37:59;0.90;99.90
19680;DHT22;9989;48.962;9.182;2024-01-15T02:40:24;0.90;99.90
19680;DHT22;9989;48.962;9.182;2024-01-15T02:42:50;0.90;99.90
19680;DHT22;9989;48.962;9.182;2024-01-15T02:45:16;0.90;99.90
19680;DHT22;9989;48.962;9.182;2024-01-15T02:47:42;0.90;99.90
19680;DHT22;9989;48.962;9.182;2024-01-15T02:50:08;0.90;99.90
19680;DHT22;9989;48.962;9.182;2024-01-15T02:52:34;0.90;99.90
19680;DHT22;9989;48.962;9.182;2024-01-15T02:54:59;0.90;99.90
19680;DHT22;9989;48.962;9.182;2024-01-15T02:57:25;0.90;99.90
19680;DHT22;9989;48.962;9.182;2024-01-15T02:59:50;0.90;99.90
19680;DHT22;9989;48.962;9.182;2024-01-15T03:02:16;0.90;99.90
19680;DHT22;9989;48.962;9.182;2024-01-15T03:04:45;0.90;99.90
19680;DHT22;9989;48.962;9.182;2024-01-15T03:07:11;0.90;99.90
19680;DHT22;9989;48.962;9.182;2024-01-15T03:09:36;0.90;99.90
19680;DHT22;9989;48.962;9.182;2024-01-15T03:12:02;0.90;99.90
19680;DHT22;9989;48.962;9.182;2024-01-15T03:14:28;0.90;99.90
19680;DHT22;9989;48.962;9.182;2024-01-15T03:16:53;0.90;99.90
19680;DHT22;9989;48.962;9.182;2024-01-15T03:19:19;0.90;99.90
19680;DHT22;9989;48.962;9.182;2024-01-15T03:21:45;0.80;99.90
19680;DHT22;9989;48.962;9.182;2024-01-15T03:24:10;0.80;99.90
19680;DHT22;9989;48.962;9.182;2024-01-15T03:26:36;0.80;99.90
19680;DHT22;9989;48.962;9.182;2024-01-15T03:29:02;0.70;99.90
19680;DHT22;9989;48.962;9.182;2024-01-15T03:31:27;0.70;99.90
19680;DHT22;9989;48.962;9.182;2024-01-15T03:33:53;0.70;99.90
19680;DHT22;9989;48.962;9.182;2024-01-15T03:36:18;0.70;99.90
19680;DHT22;9989;48.962;9.182;2024-01-15T03:38:44;0.80;99.90
19680;DHT22;9989;48.962;9.182;2024-01-15T03:41:10;0.80;99.90
19680;DHT22;9989;48.962;9.182;2024-01-15T03:43:35;0.80;99.90
19680;DHT22;9989;48.962;9.182;2024-01-15T03:46:01;0.80;99.90
19680;DHT22;9989;48.962;9.182;2024-01-15T03:48:27;0.80;99.90
19680;DHT22;9989;48.962;9.182;2024-01-15T03:50:53;0.90;99.90
19680;DHT22;9989;48.962;9.182;2024-01-15T03:53:19;0.90;99.90
19680;DHT22;9989;48.962;9.182;2024-01-15T03:55:44;1.00;99.90
19680;DHT22;9989;48.962;9.182;2024-01-15T03:58:10;0.90;99.90
19680;DHT22;9989;48.962;9.182;2024-01-15T04:00:35;0.90;99.90
19680;DHT22;9989;48.962;9.182;2024-01-15T04:03:01;1.00;99.90
19680;DHT22;9989;48.962;9.182;2024-01-15T04:05:27;1.00;99.90
19680;DHT22;9989;48.962;9.182;2024-01-15T04:07:52;1.00;99.90
19680;DHT22;9989;48.962;9.182;2024-01-15T04:10:18;1.00;99.90
19680;DHT22;9989;48.962;9.182;2024-01-15T04:12:44;1.00;99.90
19680;DHT22;9989;48.962;9.182;2024-01-15T04:15:12;1.00;99.90
19680;DHT22;9989;48.962;9.182;2024-01-15T04:17:38;1.00;99.90
19680;DHT22;9989;48.962;9.182;2024-01-15T04:20:04;1.10;99.90
19680;DHT22;9989;48.962;9.182;2024-01-15T04:22:29;1.00;99.90
19680;DHT22;9989;48.962;9.182;2024-01-15T04:24:55;1.10;99.90
19680;DHT22;9989;48.962;9.182;2024-01-15T04:27:21;1.10;99.90
19680;DHT22;9989;48.962;9.182;2024-01-15T04:29:46;1.10;99.90
19680;DHT22;9989;48.962;9.182;2024-01-15T04:32:14;1.00;99.90
19680;DHT22;9989;48.962;9.182;2024-01-15T04:34:40;1.10;99.90
19680;DHT22;9989;48.962;9.182;2024-01-15T04:37:05;1.00;99.90
19680;DHT22;9989;48.962;9.182;2024-01-15T04:39:31;1.10;99.90
19680;DHT22;9989;48.962;9.182;2024-01-15T04:41:57;1.10;99.90
19680;DHT22;9989;48.962;9.182;2024-01-15T04:44:22;1.10;99.90
19680;DHT22;9989;48.962;9.182;2024-01-15T04:46:48;1.20;99.90
19680;DHT22;9989;48.962;9.182;2024-01-15T04:49:14;1.20;99.90
19680;DHT22;9989;48.962;9.182;2024-01-15T04:51:39;1.20;99.90
19680;DHT22;9989;48.962;9.182;2024-01-15T04:54:05;1.20;99.90
19680;DHT22;9989;48.962;9.182;2024-01-15T04:56:30;1.20;99.90
19680;DHT22;9989;48.962;9.182;2024-01-15T04:58:56;1.20;99.90
19680;DHT22;9989;48.962;9.182;2024-01-15T05:01:21;1.10;99.90
19680;DHT22;9989;48.962;9.182;2024-01-15T05:03:47;1.10;99.90
19680;DHT22;9989;48.962;9.182;2024-01-15T05:06:13;1.10;99.90
19680;DHT22;9989;48.962;9.182;2024-01-15T05:08:38;1.10;99.90
19680;DHT22;9989;48.962;9.182;2024-01-15T05:11:04;1.00;99.90
19680;DHT22;9989;48.962;9.182;2024-01-15T05:13:29;1.00;99.90
19680;DHT22;9989;48.962;9.182;2024-01-15T05:15:55;1.00;99.90
19680;DHT22;9989;48.962;9.182;2024-01-15T05:18:21;1.00;99.90
19680;DHT22;9989;48.962;9.182;2024-01-15T05:20:46;1.00;99.90
19680;DHT22;9989;48.962;9.182;2024-01-15T05:23:12;1.00;99.90
19680;DHT22;9989;48.962;9.182;2024-01-15T05:25:38;1.00;99.90
19680;DHT22;9989;48.962;9.182;2024-01-15T05:28:04;1.00;99.90
19680;DHT22;9989;48.962;9.182;2024-01-15T05:30:30;1.10;99.90
19680;DHT22;9989;48.962;9.182;2024-01-15T05:32:55;1.00;99.90
19680;DHT22;9989;48.962;9.182;2024-01-15T05:35:21;1.00;99.90
19680;DHT22;9989;48.962;9.182;2024-01-15T05:37:47;1.00;99.90
19680;DHT22;9989;48.962;9.182;2024-01-15T05:40:13;1.00;99.90
19680;DHT22;9989;48.962;9.182;2024-01-15T05:42:39;1.10;99.90
19680;DHT22;9989;48.962;9.182;2024-01-15T05:45:05;1.10;99.90
19680;DHT22;9989;48.962;9.182;2024-01-15T05:47:31;1.20;99.90
19680;DHT22;9989;48.962;9.182;2024-01-15T05:49:57;1.20;99.90
19680;DHT22;9989;48.962;9.182;2024-01-15T05:52:23;1.20;99.90
19680;DHT22;9989;48.962;9.182;2024-01-15T05:54:49;1.30;99.90
19680;DHT22;9989;48.962;9.182;2024-01-15T05:57:16;1.30;99.90
19680;DHT22;9989;48.962;9.182;2024-01-15T05:59:42;1.30;99.90
19680;DHT22;9989;48.962;9.182;2024-01-15T06:02:08;1.40;99.90
19680;DHT22;9989;48.962;9.182;2024-01-15T06:04:33;1.40;99.90
19680;DHT22;9989;48.962;9.182;2024-01-15T06:06:59;1.40;99.90
19680;DHT22;9989;48.962;9.182;2024-01-15T06:09:25;1.50;99.90
19680;DHT22;9989;48.962;9.182;2024-01-15T06:11:50;1.50;99.90
19680;DHT22;9989;48.962;9.182;2024-01-15T06:14:16;1.60;99.90
19680;DHT22;9989;48.962;9.182;2024-01-15T06:16:42;1.60;99.90
19680;DHT22;9989;48.962;9.182;2024-01-15T06:19:10;1.60;99.90
19680;DHT22;9989;48.962;9.182;2024-01-15T06:21:35;1.70;99.90
19680;DHT22;9989;48.962;9.182;2024-01-15T06:24:01;1.70;99.90
19680;DHT22;9989;48.962;9.182;2024-01-15T06:26:27;1.70;99.90
19680;DHT22;9989;48.962;9.182;2024-01-15T06:28:52;1.70;99.90
19680;DHT22;9989;48.962;9.182;2024-01-15T06:31:18;1.70;99.90
19680;DHT22;9989;48.962;9.182;2024-01-15T06:33:44;1.70;99.90
19680;DHT22;9989;48.962;9.182;2024-01-15T06:36:12;1.80;99.90
19680;DHT22;9989;48.962;9.182;2024-01-15T06:38:38;1.80;99.90
19680;DHT22;9989;48.962;9.182;2024-01-15T06:41:03;1.80;99.90
19680;DHT22;9989;48.962;9.182;2024-01-15T06:43:29;1.90;99.90
19680;DHT22;9989;48.962;9.182;2024-01-15T06:45:55;1.90;99.90
19680;DHT22;9989;48.962;9.182;2024-01-15T06:48:20;1.90;99.90
19680;DHT22;9989;48.962;9.182;2024-01-15T06:50:46;2.00;99.90
19680;DHT22;9989;48.962;9.182;2024-01-15T06:53:12;2.00;99.90
19680;DHT22;9989;48.962;9.182;2024-01-15T06:55:38;2.10;99.90
19680;DHT22;9989;48.962;9.182;2024-01-15T06:58:04;2.10;99.90
19680;DHT22;9989;48.962;9.182;2024-01-15T07:00:30;2.10;99.90
19680;DHT22;9989;48.962;9.182;2024-01-15T07:02:56;2.10;99.90
19680;DHT22;9989;48.962;9.182;2024-01-15T07:05:22;2.20;99.90
19680;DHT22;9989;48.962;9.182;2024-01-15T07:07:48;2.20;99.90
19680;DHT22;9989;48.962;9.182;2024-01-15T07:10:14;2.20;99.90
19680;DHT22;9989;48.962;9.182;2024-01-15T07:12:42;2.20;99.90
19680;DHT22;9989;48.962;9.182;2024-01-15T07:15:08;2.20;99.90
19680;DHT22;9989;48.962;9.182;2024-01-15T07:17:34;2.20;99.90
19680;DHT22;9989;48.962;9.182;2024-01-15T07:20:00;2.20;99.90
19680;DHT22;9989;48.962;9.182;2024-01-15T07:22:25;2.30;99.90
19680;DHT22;9989;48.962;9.182;2024-01-15T07:24:51;2.30;99.90
19680;DHT22;9989;48.962;9.182;2024-01-15T07:27:17;2.30;99.90
19680;DHT22;9989;48.962;9.182;2024-01-15T07:29:42;2.30;99.90
19680;DHT22;9989;48.962;9.182;2024-01-15T07:32:08;2.30;99.90
19680;DHT22;9989;48.962;9.182;2024-01-15T07:34:34;2.40;99.90
19680;DHT22;9989;48.962;9.182;2024-01-15T07:37:00;2.40;99.90
19680;DHT22;9989;48.962;9.182;2024-01-15T07:39:26;2.40;99.90
19680;DHT22;9989;48.962;9.182;2024-01-15T07:41:52;2.40;99.90
19680;DHT22;9989;48.962;9.182;2024-01-15T07:44:17;2.40;99.90
19680;DHT22;9989;48.962;9.182;2024-01-15T07:46:47;2.50;99.90
19680;DHT22;9989;48.962;9.182;2024-01-15T07:49:12;2.50;99.90
19680;DHT22;9989;48.962;9.182;2024-01-15T07:51:38;2.50;99.90
19680;DHT22;9989;48.962;9.182;2024-01-15T07:54:06;2.50;99.90
19680;DHT22;9989;48.962;9.182;2024-01-15T07:56:32;2.50;99.90
19680;DHT22;9989;48.962;9.182;2024-01-15T07:58:58;2.50;99.90
19680;DHT22;9989;48.962;9.182;2024-01-15T08:01:24;2.50;99.90
19680;DHT22;9989;48.962;9.182;2024-01-15T08:03:50;2.60;99.90
19680;DHT22;9989;48.962;9.182;2024-01-15T08:06:15;2.60;99.90
19680;DHT22;9989;48.962;9.182;2024-01-15T08:08:41;2.50;99.90
19680;DHT22;9989;48.962;9.182;2024-01-15T08:11:07;2.60;99.90
19680;DHT22;9989;48.962;9.182;2024-01-15T08:13:33;2.50;99.90
19680;DHT22;9989;48.962;9.182;2024-01-15T08:15:58;2.50;99.90
19680;DHT22;9989;48.962;9.182;2024-01-15T08:18:24;2.60;99.90
19680;DHT22;9989;48.962;9.182;2024-01-15T08:20:50;2.50;99.90
19680;DHT22;9989;48.962;9.182;2024-01-15T08:23:17;2.60;99.90
19680;DHT22;9989;48.962;9.182;2024-01-15T08:25:43;2.60;99.90
19680;DHT22;9989;48.962;9.182;2024-01-15T08:28:09;2.60;99.90
19680;DHT22;9989;48.962;9.182;2024-01-15T08:30:34;2.70;99.90
19680;DHT22;9989;48.962;9.182;2024-01-15T08:33:00;2.70;99.90
19680;DHT22;9989;48.962;9.182;2024-01-15T08:35:25;2.70;99.90
19680;DHT22;9989;48.962;9.182;2024-01-15T08:37:52;2.70;99.90
19680;DHT22;9989;48.962;9.182;2024-01-15T08:40:18;2.80;99.90
19680;DHT22;9989;48.962;9.182;2024-01-15T08:42:44;2.80;99.90
19680;DHT22;9989;48.962;9.182;2024-01-15T08:45:11;2.80;99.90
19680;DHT22;9989;48.962;9.182;2024-01-15T08:47:37;2.80;99.90
19680;DHT22;9989;48.962;9.182;2024-01-15T08:50:03;2.90;99.90
19680;DHT22;9989;48.962;9.182;2024-01-15T08:52:29;2.90;99.90
19680;DHT22;9989;48.962;9.182;2024-01-15T08:54:56;2.90;99.90
19680;DHT22;9989;48.962;9.182;2024-01-15T08:57:22;2.90;99.90
19680;DHT22;9989;48.962;9.182;2024-01-15T08:59:47;3.00;99.90
19680;DHT22;9989;48.962;9.182;2024-01-15T09:02:13;3.00;99.90
19680;DHT22;9989;48.962;9.182;2024-01-15T09:04:39;3.00;99.90
19680;DHT22;9989;48.962;9.182;2024-01-15T09:07:05;3.00;99.90
19680;DHT22;9989;48.962;9.182;2024-01-15T09:09:30;3.10;99.90
19680;DHT22;9989;48.962;9.182;2024-01-15T09:11:56;3.10;99.90
19680;DHT22;9989;48.962;9.182;2024-01-15T09:14:22;3.10;99.90
19680;DHT22;9989;48.962;9.182;2024-01-15T09:16:49;3.10;99.90
19680;DHT22;9989;48.962;9.182;2024-01-15T09:19:15;3.20;99.90
19680;DHT22;9989;48.962;9.182;2024-01-15T09:21:40;3.20;99.90
19680;DHT22;9989;48.962;9.182;2024-01-15T09:24:06;3.20;99.90
19680;DHT22;9989;48.962;9.182;2024-01-15T09:26:32;3.20;99.90
19680;DHT22;9989;48.962;9.182;2024-01-15T09:28:57;3.20;99.90
19680;DHT22;9989;48.962;9.182;2024-01-15T09:31:23;3.20;99.90
19680;DHT22;9989;48.962;9.182;2024-01-15T09:33:49;3.30;99.90
19680;DHT22;9989;48.962;9.182;2024-01-15T09:36:18;3.30;99.90
19680;DHT22;9989;48.962;9.182;2024-01-15T09:38:43;3.30;99.90
19680;DHT22;9989;48.962;9.182;2024-01-15T09:41:09;3.40;99.90
19680;DHT22;9989;48.962;9.182;2024-01-15T09:43:36;3.40;99.90
19680;DHT22;9989;48.962;9.182;2024-01-15T09:46:03;3.40;99.90
19680;DHT22;9989;48.962;9.182;2024-01-15T09:48:29;3.40;99.90
19680;DHT22;9989;48.962;9.182;2024-01-15T09:50:57;3.40;99.90
19680;DHT22;9989;48.962;9.182;2024-01-15T09:53:25;3.40;99.90
19680;DHT22;9989;48.962;9.182;2024-01-15T09:55:52;3.30;99.90
19680;DHT22;9989;48.962;9.182;2024-01-15T09:58:18;3.30;99.90
19680;DHT22;9989;48.962;9.182;2024-01-15T10:00:44;3.30;99.90
19680;DHT22;9989;48.962;9.182;2024-01-15T10:03:10;3.30;99.90
19680;DHT22;9989;48.962;9.182;2024-01-15T10:05:37;3.30;99.90
19680;DHT22;9989;48.962;9.182;2024-01-15T10:08:04;3.20;99.90
19680;DHT22;9989;48.962;9.182;2024-01-15T10:10:31;3.20;99.90
19680;DHT22;9989;48.962;9.182;2024-01-15T10:12:58;3.20;99.90
19680;DHT22;9989;48.962;9.182;2024-01-15T10:15:28;3.20;99.90
19680;DHT22;9989;48.962;9.182;2024-01-15T10:17:54;3.20;99.90
19680;DHT22;9989;48.962;9.182;2024-01-15T10:20:20;3.20;99.90
19680;DHT22;9989;48.962;9.182;2024-01-15T10:22:47;3.20;99.90
19680;DHT22;9989;48.962;9.182;2024-01-15T10:25:14;3.20;99.90
19680;DHT22;9989;48.962;9.182;2024-01-15T10:27:43;3.20;99.90
19680;DHT22;9989;48.962;9.182;2024-01-15T10:30:09;3.20;99.90
19680;DHT22;9989;48.962;9.182;2024-01-15T10:32:35;3.20;99.90
19680;DHT22;9989;48.962;9.182;2024-01-15T10:35:01;3.20;99.90
19680;DHT22;9989;48.962;9.182;2024-01-15T10:37:27;3.20;99.90
19680;DHT22;9989;48.962;9.182;2024-01-15T10:39:52;3.20;99.90
19680;DHT22;9989;48.962;9.182;2024-01-15T10:42:18;3.20;99.90
19680;DHT22;9989;48.962;9.182;2024-01-15T10:44:44;3.20;99.90
19680;DHT22;9989;48.962;9.182;2024-01-15T10:47:12;3.30;99.90
19680;DHT22;9989;48.962;9.182;2024-01-15T10:49:39;3.30;99.90
19680;DHT22;9989;48.962;9.182;2024-01-15T10:52:05;3.30;99.90
19680;DHT22;9989;48.962;9.182;2024-01-15T10:54:32;3.30;99.90
19680;DHT22;9989;48.962;9.182;2024-01-15T10:56:57;3.30;99.90
19680;DHT22;9989;48.962;9.182;2024-01-15T10:59:23;3.30;99.90
19680;DHT22;9989;48.962;9.182;2024-01-15T11:01:50;3.20;99.90
19680;DHT22;9989;48.962;9.182;2024-01-15T11:04:21;3.20;99.90
19680;DHT22;9989;48.962;9.182;2024-01-15T11:06:52;3.20;99.90
19680;DHT22;9989;48.962;9.182;2024-01-15T11:09:18;3.20;99.90
19680;DHT22;9989;48.962;9.182;2024-01-15T11:11:45;3.10;99.90
19680;DHT22;9989;48.962;9.182;2024-01-15T11:14:34;3.10;99.90
19680;DHT22;9989;48.962;9.182;2024-01-15T11:17:00;3.00;99.90
19680;DHT22;9989;48.962;9.182;2024-01-15T11:19:30;2.90;99.90
19680;DHT22;9989;48.962;9.182;2024-01-15T11:22:00;2.80;99.90
19680;DHT22;9989;48.962;9.182;2024-01-15T11:24:36;2.80;99.90
19680;DHT22;9989;48.962;9.182;2024-01-15T11:27:02;2.70;99.90
19680;DHT22;9989;48.962;9.182;2024-01-15T11:29:29;2.60;99.90
19680;DHT22;9989;48.962;9.182;2024-01-15T11:31:56;2.60;99.90
19680;DHT22;9989;48.962;9.182;2024-01-15T11:34:57;2.60;99.90
19680;DHT22;9989;48.962;9.182;2024-01-15T11:37:24;2.50;99.90
19680;DHT22;9989;48.962;9.182;2024-01-15T11:40:01;2.50;99.90
19680;DHT22;9989;48.962;9.182;2024-01-15T11:42:30;2.60;99.90
19680;DHT22;9989;48.962;9.182;2024-01-15T11:44:55;2.60;99.90
19680;DHT22;9989;48.962;9.182;2024-01-15T11:50:30;2.50;99.90
19680;DHT22;9989;48.962;9.182;2024-01-15T11:53:02;2.50;99.90
19680;DHT22;9989;48.962;9.182;2024-01-15T11:55:37;2.50;99.90
19680;DHT22;9989;48.962;9.182;2024-01-15T11:58:08;2.50;99.90
19680;DHT22;9989;48.962;9.182;2024-01-15T12:00:42;2.50;99.90
19680;DHT22;9989;48.962;9.182;2024-01-15T12:03:09;2.50;99.90
19680;DHT22;9989;48.962;9.182;2024-01-15T12:05:37;2.50;99.90
19680;DHT22;9989;48.962;9.182;2024-01-15T12:08:03;2.60;99.90
19680;DHT22;9989;48.962;9.182;2024-01-15T12:10:36;2.60;99.90
19680;DHT22;9989;48.962;9.182;2024-01-15T12:15:32;2.60;99.90
19680;DHT22;9989;48.962;9.182;2024-01-15T12:17:59;2.60;99.90
19680;DHT22;9989;48.962;9.182;2024-01-15T12:20:26;2.60;99.90
19680;DHT22;9989;48.962;9.182;2024-01-15T12:22:52;2.60;99.90
19680;DHT22;9989;48.962;9.182;2024-01-15T12:25:18;2.60;99.90
19680;DHT22;9989;48.962;9.182;2024-01-15T12:27:44;2.50;99.90
19680;DHT22;9989;48.962;9.182;2024-01-15T12:30:12;2.50;99.90
19680;DHT22;9989;48.962;9.182;2024-01-15T12:32:39;2.50;99.90
19680;DHT22;9989;48.962;9.182;2024-01-15T12:35:05;2.40;99.90
19680;DHT22;9989;48.962;9.182;2024-01-15T12:37:31;2.40;99.90
19680;DHT22;9989;48.962;9.182;2024-01-15T12:39:58;2.40;99.90
19680;DHT22;9989;48.962;9.182;2024-01-15T12:42:24;2.40;99.90
19680;DHT22;9989;48.962;9.182;2024-01-15T12:44:50;2.40;99.90
19680;DHT22;9989;48.962;9.182;2024-01-15T12:47:15;2.40;99.90
19680;DHT22;9989;48.962;9.182;2024-01-15T12:49:47;2.40;99.90
19680;DHT22;9989;48.962;9.182;2024-01-15T12:52:14;2.40;99.90
19680;DHT22;9989;48.962;9.182;2024-01-15T12:54:40;2.40;99.90
19680;DHT22;9989;48.962;9.182;2024-01-15T12:57:05;2.40;99.90
19680;DHT22;9989;48.962;9.182;2024-01-15T12:59:31;2.50;99.90
19680;DHT22;9989;48.962;9.182;2024-01-15T13:01:57;2.50;99.90
19680;DHT22;9989;48.962;9.182;2024-01-15T13:04:23;2.50;99.90
19680;DHT22;9989;48.962;9.182;2024-01-15T13:06:50;2.50;99.90
19680;DHT22;9989;48.962;9.182;2024-01-15T13:09:16;2.50;99.90
19680;DHT22;9989;48.962;9.182;2024-01-15T13:11:43;2.50;99.90
19680;DHT22;9989;48.962;9.182;2024-01-15T13:14:09;2.50;99.90
19680;DHT22;9989;48.962;9.182;2024-01-15T13:16:35;2.50;99.90
19680;DHT22;9989;48.962;9.182;2024-01-15T13:19:00;2.50;99.90
19680;DHT22;9989;48.962;9.182;2024-01-15T13:21:26;2.50;99.90
19680;DHT22;9989;48.962;9.182;2024-01-15T13:23:52;2.50;99.90
19680;DHT22;9989;48.962;9.182;2024-01-15T13:26:17;2.50;99.90
19680;DHT22;9989;48.962;9.182;2024-01-15T13:28:44;2.60;99.90
19680;DHT22;9989;48.962;9.182;2024-01-15T13:31:10;2.60;99.90
19680;DHT22;9989;48.962;9.182;2024-01-15T13:33:36;2.60;99.90
19680;DHT22;9989;48.962;9.182;2024-01-15T13:36:01;2.60;99.90
19680;DHT22;9989;48.962;9.182;2024-01-15T13:38:28;2.60;99.90
19680;DHT22;9989;48.962;9.182;2024-01-15T13:41:00;2.60;99.90
19680;DHT22;9989;48.962;9.182;2024-01-15T13:43:26;2.70;99.90
19680;DHT22;9989;48.962;9.182;2024-01-15T13:45:52;2.70;99.90
19680;DHT22;9989;48.962;9.182;2024-01-15T13:48:19;2.70;99.90
19680;DHT22;9989;48.962;9.182;2024-01-15T13:50:45;2.70;99.90
19680;DHT22;9989;48.962;9.182;2024-01-15T13:53:10;2.70;99.90
19680;DHT22;9989;48.962;9.182;2024-01-15T13:55:36;2.80;99.90
19680;DHT22;9989;48.962;9.182;2024-01-15T13:58:02;2.70;99.90
19680;DHT22;9989;48.962;9.182;2024-01-15T14:00:31;2.70;99.90
19680;DHT22;9989;48.962;9.182;2024-01-15T14:02:57;2.70;99.90
19680;DHT22;9989;48.962;9.182;2024-01-15T14:05:23;2.70;99.90
19680;DHT22;9989;48.962;9.182;2024-01-15T14:07:49;2.70;99.90
19680;DHT22;9989;48.962;9.182;2024-01-15T14:10:14;2.70;99.90
19680;DHT22;9989;48.962;9.182;2024-01-15T14:12:40;2.60;99.90
19680;DHT22;9989;48.962;9.182;2024-01-15T14:15:07;2.60;99.90
19680;DHT22;9989;48.962;9.182;2024-01-15T14:17:33;2.60;99.90
19680;DHT22;9989;48.962;9.182;2024-01-15T14:19:59;2.60;99.90
19680;DHT22;9989;48.962;9.182;2024-01-15T14:22:24;2.60;99.90
19680;DHT22;9989;48.962;9.182;2024-01-15T14:24:50;2.60;99.90
19680;DHT22;9989;48.962;9.182;2024-01-15T14:27:16;2.60;99.90
19680;DHT22;9989;48.962;9.182;2024-01-15T14:29:42;2.60;99.90
19680;DHT22;9989;48.962;9.182;2024-01-15T14:32:08;2.60;99.90
19680;DHT22;9989;48.962;9.182;2024-01-15T14:34:33;2.60;99.90
19680;DHT22;9989;48.962;9.182;2024-01-15T14:37:01;2.50;99.90
19680;DHT22;9989;48.962;9.182;2024-01-15T14:39:27;2.50;99.90
19680;DHT22;9989;48.962;9.182;2024-01-15T14:41:52;2.50;99.90
19680;DHT22;9989;48.962;9.182;2024-01-15T14:44:18;2.50;99.90
19680;DHT22;9989;48.962;9.182;2024-01-15T14:46:44;2.50;99.90
19680;DHT22;9989;48.962;9.182;2024-01-15T14:49:09;2.60;99.90
19680;DHT22;9989;48.962;9.182;2024-01-15T14:51:35;2.60;99.90
19680;DHT22;9989;48.962;9.182;2024-01-15T14:54:00;2.60;99.90
19680;DHT22;9989;48.962;9.182;2024-01-15T14:56:26;2.60;99.90
19680;DHT22;9989;48.962;9.182;2024-01-15T14:58:52;2.50;99.90
19680;DHT22;9989;48.962;9.182;2024-01-15T15:01:17;2.50;99.90
19680;DHT22;9989;48.962;9.182;2024-01-15T15:03:43;2.50;99.90
19680;DHT22;9989;48.962;9.182;2024-01-15T15:06:09;2.50;99.90
19680;DHT22;9989;48.962;9.182;2024-01-15T15:08:36;2.50;99.90
19680;DHT22;9989;48.962;9.182;2024-01-15T15:11:03;2.50;99.90
19680;DHT22;9989;48.962;9.182;2024-01-15T15:13:28;2.50;99.90
19680;DHT22;9989;48.962;9.182;2024-01-15T15:15:54;2.40;99.90
19680;DHT22;9989;48.962;9.182;2024-01-15T15:18:20;2.40;99.90
19680;DHT22;9989;48.962;9.182;2024-01-15T15:20:47;2.40;99.90
19680;DHT22;9989;48.962;9.182;2024-01-15T15:23:13;2.40;99.90
19680;DHT22;9989;48.962;9.182;2024-01-15T15:25:39;2.40;99.90
19680;DHT22;9989;48.962;9.182;2024-01-15T15:28:05;2.30;99.90
19680;DHT22;9989;48.962;9.182;2024-01-15T15:30:31;2.30;99.90
19680;DHT22;9989;48.962;9.182;2024-01-15T15:32:57;2.30;99.90
19680;DHT22;9989;48.962;9.182;2024-01-15T15:35:23;2.30;99.90
19680;DHT22;9989;48.962;9.182;2024-01-15T15:37:48;2.40;99.90
19680;DHT22;9989;48.962;9.182;2024-01-15T15:40:14;2.40;99.90
19680;DHT22;9989;48.962;9.182;2024-01-15T15:42:40;2.40;99.90
19680;DHT22;9989;48.962;9.182;2024-01-15T15:45:05;2.40;99.90
19680;DHT22;9989;48.962;9.182;2024-01-15T15:47:31;2.30;99.90
19680;DHT22;9989;48.962;9.182;2024-01-15T15:49:58;2.30;99.90
19680;DHT22;9989;48.962;9.182;2024-01-15T15:52:24;2.30;99.90
19680;DHT22;9989;48.962;9.182;2024-01-15T15:54:49;2.20;99.90
19680;DHT22;9989;48.962;9.182;2024-01-15T15:57:15;2.10;99.90
19680;DHT22;9989;48.962;9.182;2024-01-15T15:59:41;2.10;99.90